Flight Track Log - Related Links

Times and Time Zones

All times are in EDT time to prevent confusion due to time zone crossing. See the N717AN flight status page for this flight to view local times or setup timezone preferences in your user account.

Time Position Orientation Groundspeed Altitude Reporting Facility
EDT Latitude Longitude Course Direction KTS MPH feet Rate Location/Type
Fri 10:48:56 PM 40.6450 -73.7960 160° South  Level FlightAware ADS-B
Fri 10:53:54 PM 40.6440 -73.7960 180° South 20 23 26 Level FlightAware ADS-B
Fri 10:54:51 PM 40.6420 -73.7960 180° South 17 20 28 Level FlightAware ADS-B
Fri 10:55:31 PM 40.6410 -73.7960 180° South 12 14 29 Level FlightAware ADS-B
Fri 10:58:00 PM 40.4807 -73.4955 128° Southeast  Level FlightAware Approximate
Fri 10:59:00 PM 40.4051 -73.3695 128° Southeast  Level FlightAware Approximate
Fri 11:00:00 PM 40.3260 -73.2473 131° Southeast  Level FlightAware Approximate
Fri 11:00:52 PM 40.6400 -73.7960 128° Southeast 16 18  Level FlightAware ADS-B
Fri 11:01:00 PM 40.2501 -73.1219 128° Southeast  Level FlightAware Approximate
Fri 11:01:09 PM 40.6400 -73.7950 90° East 20 23  Level FlightAware ADS-B
Fri 11:01:37 PM 40.6400 -73.7940 90° East 13 15 34 Level FlightAware ADS-B
Fri 11:03:01 PM 40.6390 -73.7940 180° South 2 2 34 Level FlightAware ADS-B
Fri 11:05:00 PM 40.5083 -73.5583 143° Southeast  Level FlightAware Approximate
Fri 11:06:00 PM 40.4429 -73.4325 128° Southeast  Level FlightAware Approximate
Fri 11:07:00 PM 40.3662 -73.3076 131° Southeast  Level FlightAware Approximate
Fri 11:08:00 PM 40.2878 -73.1849 128° Southeast  Level FlightAware Approximate
Fri 11:08:52 PM 40.6390 -73.7930 128° Southeast 20 23  Level FlightAware ADS-B
Fri 11:09:27 PM 40.6380 -73.7920 143° Southeast 22 25 42 Level FlightAware ADS-B
Fri 11:10:28 PM 40.6380 -73.7900 90° East 10 12 43 Level FlightAware ADS-B
Fri 11:13:00 PM 40.4769 -73.4892 128° Southeast  Level FlightAware Approximate
Fri 11:13:26 PM 40.6370 -73.7900 128° Southeast 18 21  Level FlightAware ADS-B
Fri 11:14:05 PM 40.6370 -73.7880 90° East 18 21 50 Level FlightAware ADS-B
Fri 11:14:34 PM 40.6360 -73.7880 180° South 2 2 51 Level FlightAware ADS-B
Fri 11:15:12 PM 40.6360 -73.7870 90° East 14 16 52 Level FlightAware ADS-B
Fri 11:15:41 PM 40.6360 -73.7860 90° East 25 29 53 Level FlightAware ADS-B
Fri 11:16:41 PM 40.6350 -73.7840 123° Southeast 15 17 55 Level FlightAware ADS-B
Fri 11:17:38 PM 40.6350 -73.7830 90° East 2 2 57 Level FlightAware ADS-B
Fri 11:18:25 PM 40.6340 -73.7830 180° South 59 Level FlightAware ADS-B
Fri 11:21:00 PM 40.4731 -73.4829 128° Southeast  Level FlightAware Approximate
Fri 11:21:33 PM 40.6340 -73.7820 128° Southeast 22 25  Level FlightAware ADS-B
Fri 11:22:02 PM 40.6330 -73.7810 143° Southeast 19 22 72 Level FlightAware ADS-B
Fri 11:23:11 PM 40.6320 -73.7800 143° Southeast 17 20 74 Level FlightAware ADS-B
Fri 11:23:55 PM 40.6310 -73.7800 180° South 23 26 80 Level FlightAware ADS-B
Fri 11:24:23 PM 40.6300 -73.7810 217° Southwest 17 20 83 Level FlightAware ADS-B
Fri 11:25:31 PM 40.6300 -73.7820 270° West 2 2 86 Level FlightAware ADS-B
Fri 11:27:11 PM 40.6290 -73.7820 180° South 14 16 93 Level FlightAware ADS-B
Fri 11:28:07 PM 40.6280 -73.7820 180° South 12 14 105 Level FlightAware ADS-B
Fri 11:30:00 PM 40.5086 -73.5586 143° Southeast  Level FlightAware Approximate
Fri 11:31:00 PM 40.4392 -73.4264 128° Southeast  Level FlightAware Approximate
Fri 11:31:23 PM 40.6270 -73.7830 128° Southeast 13 15  Level FlightAware ADS-B
Fri 11:31:51 PM 40.6270 -73.7840 270° West 14 16 160 Level FlightAware ADS-B
Fri 11:32:18 PM 40.6260 -73.7840 180° South 15 17 170 Level FlightAware ADS-B
Fri 11:32:47 PM 40.6260 -73.7850 270° West 17 20 180 Level FlightAware ADS-B
Fri 11:32:59 PM 40.6250 -73.7850 180° South 16 18 193 Level FlightAware ADS-B
Fri 11:33:55 PM 40.6250 -73.7860 270° West 10 12 199 Level FlightAware ADS-B
Fri 11:34:49 PM 40.6240 -73.7860 180° South 2 2 232 Level FlightAware ADS-B
Fri 11:35:57 PM 40.6230 -73.7860 180° South 10 12 277 Level FlightAware ADS-B
Fri 11:36:26 PM 40.6230 -73.7870 270° West 11 13 364 Level FlightAware ADS-B
Fri 11:37:12 PM 40.6220 -73.7860 143° Southeast 16 18 422 Level FlightAware ADS-B
Fri 11:38:09 PM 40.6230 -73.7850 37° Northeast 15 17 561 Level FlightAware ADS-B
Fri 11:38:37 PM 40.6270 -73.7810 37° Northeast 94 108 951 Level FlightAware ADS-B
Fri 11:39:01 PM 40.6410 -73.7710 28° Northeast 175 201 1,444 Level FlightAware ADS-B
Fri 11:39:31 PM 40.6630 -73.7550 29° Northeast 192 221 1,300 2,182 Climbing FlightAware ADS-B
Fri 11:39:45 PM 40.6730 -73.7430 42° Northeast 205 236 1,600 1,800 Climbing FlightAware ADS-B
Fri 11:40:01 PM 40.6800 -73.7260 61° Northeast 195 224 2,200 1,846 Climbing FlightAware ADS-B
Fri 11:40:11 PM 40.6810 -73.7140 84° East 199 229 2,400 732 Climbing FlightAware ADS-B
Fri 11:40:42 PM 40.6700 -73.6770 111° Southeast 228 262 2,700 1,100 Climbing FlightAware ADS-B
Fri 11:41:11 PM 40.6500 -73.6440 129° Southeast 255 293 3,500 1,902 Climbing FlightAware ADS-B
Fri 11:41:23 PM 40.6410 -73.6300 130° Southeast 260 299 4,000 2,550 Climbing FlightAware ADS-B
Fri 11:41:51 PM 40.6180 -73.5960 132° Southeast 258 297 5,200 2,045 Climbing FlightAware ADS-B
Fri 11:42:07 PM 40.6050 -73.5780 134° Southeast 260 299 5,500 818 Climbing FlightAware ADS-B
Fri 11:42:35 PM 40.5830 -73.5450 131° Southeast 262 302 5,800 1,500 Climbing FlightAware ADS-B
Fri 11:43:07 PM 40.5524 -73.5091 138° Southeast 272 313 7,000 2,250 Climbing FlightAware ADS-B
Fri 11:43:23 PM 40.5373 -73.4919 139° Southeast 273 314 7,600 2,516 Climbing FlightAware ADS-B
Fri 11:43:38 PM 40.5230 -73.4752 138° Southeast 274 315 8,300 2,800 Climbing FlightAware ADS-B
Fri 11:43:53 PM 40.5083 -73.4581 139° Southeast 273 314 9,000 2,667 Climbing FlightAware ADS-B
Fri 11:44:05 PM 40.4970 -73.4454 139° Southeast 273 314 9,500 2,308 Climbing FlightAware ADS-B
Fri 11:44:19 PM 40.4833 -73.4307 141° Southeast 277 319 10,000 1,818 Climbing FlightAware ADS-B
Fri 11:44:38 PM 40.4632 -73.4115 144° Southeast 284 327 10,500 1,837 Climbing FlightAware ADS-B
Fri 11:45:08 PM 40.4281 -73.3869 152° Southeast 293 337 11,500 1,700 Climbing FlightAware ADS-B
Fri 11:45:38 PM 40.3893 -73.3619 154° Southeast 314 361 12,200 2,190 Climbing FlightAware ADS-B
Fri 11:46:11 PM 40.3473 -73.3321 152° Southeast 317 365 13,800 2,604 Climbing FlightAware ADS-B
Fri 11:46:31 PM 40.3207 -73.3144 153° Southeast 321 369 14,500 1,920 Climbing FlightAware ADS-B
Fri 11:47:01 PM 40.2806 -73.2841 150° Southeast 337 388 15,400 2,000 Climbing FlightAware ADS-B
Fri 11:47:16 PM 40.2602 -73.2694 151° Southeast 338 389 16,000 2,550 Climbing FlightAware ADS-B
Fri 11:47:41 PM 40.2255 -73.2458 153° Southeast 337 388 17,100 2,036 Climbing FlightAware ADS-B
Fri 11:48:12 PM 40.1837 -73.2157 151° Southeast 350 403 17,900 1,524 Climbing FlightAware ADS-B
Fri 11:48:44 PM 40.1360 -73.1832 152° Southeast 363 418 18,700 1,548 Climbing FlightAware ADS-B
Fri 11:49:14 PM 40.0897 -73.1528 153° Southeast 368 423 19,500 1,770 Climbing FlightAware ADS-B
Fri 11:49:45 PM 40.0424 -73.1209 153° Southeast 380 437 20,500 1,905 Climbing FlightAware ADS-B
Fri 11:50:17 PM 39.9920 -73.0866 152° Southeast 384 442 21,500 1,500 Climbing FlightAware ADS-B
Fri 11:50:45 PM 39.9464 -73.0551 152° Southeast 400 460 22,000 1,017 Climbing FlightAware ADS-B
Fri 11:51:16 PM 39.8956 -73.0203 152° Southeast 416 479 22,500 968 Climbing FlightAware ADS-B
Fri 11:51:47 PM 39.8422 -72.9843 153° Southeast 429 494 23,000 1,500 Climbing FlightAware ADS-B
Fri 11:52:20 PM 39.7833 -72.9451 153° Southeast 432 497 24,100 1,619 Climbing FlightAware ADS-B
Fri 11:52:50 PM 39.7289 -72.9086 153° Southeast 441 507 24,700 1,500 Climbing FlightAware ADS-B
Fri 11:53:24 PM 39.6676 -72.8675 153° Southeast 442 509 25,700 1,569 Climbing FlightAware ADS-B
Fri 11:53:55 PM 39.6115 -72.8293 152° Southeast 447 514 26,400 1,292 Climbing FlightAware ADS-B
Fri 11:54:29 PM 39.5480 -72.7870 153° Southeast 454 522 27,100 1,459 Climbing FlightAware ADS-B
Fri 11:55:09 PM 39.4738 -72.7376 153° Southeast 451 519 28,200 1,457 Climbing FlightAware ADS-B
Fri 11:55:39 PM 39.4169 -72.6998 153° Southeast 459 528 28,800 938 Climbing FlightAware ADS-B
Fri 11:56:13 PM 39.3520 -72.6566 153° Southeast 468 539 29,200 871 Climbing FlightAware ADS-B
Fri 11:56:41 PM 39.2980 -72.6208 153° Southeast 475 547 29,700 1,241 Climbing FlightAware ADS-B
Fri 11:57:11 PM 39.2384 -72.5815 153° Southeast 477 549 30,400 1,377 Climbing FlightAware ADS-B
Fri 11:57:42 PM 39.1779 -72.5420 153° Southeast 474 545 31,100 1,429 Climbing FlightAware ADS-B
Fri 11:58:14 PM 39.1165 -72.5015 153° Southeast 470 541 31,900 1,429 Climbing FlightAware ADS-B
Fri 11:58:45 PM 39.0557 -72.4618 153° Southeast 468 539 32,600 1,048 Climbing FlightAware ADS-B
Fri 11:59:17 PM 38.9941 -72.4200 152° Southeast 469 540 33,000 369 Climbing FlightAware ADS-B
Fri 11:59:50 PM 38.9319 -72.3781 152° Southeast 466 536 33,000  Level FlightAware ADS-B
Sat 12:00:20 AM 38.8733 -72.3397 153° Southeast 461 531 33,000  Level FlightAware ADS-B
Sat 12:00:51 AM 38.8149 -72.3016 153° Southeast 459 528 33,000  Level FlightAware ADS-B
Sat 12:01:41 AM 38.7270 -72.2450 153° Southeast 450 518 33,000  Level FlightAware ADS-B
Sat 12:01:53 AM 38.6977 -72.2253 152° Southeast 458 527 33,000  Level FlightAware ADS-B
Sat 12:02:25 AM 38.6370 -72.1859 153° Southeast 458 527 33,000  Level FlightAware ADS-B
Sat 12:03:23 AM 38.5550 -72.1290 152° Southeast 450 518 33,000 423 Level FlightAware ADS-B
Sat 12:03:36 AM 38.5026 -72.0987 156° South 461 531 33,500 612 Climbing FlightAware ADS-B
Sat 12:04:12 AM 38.4540 -72.0660 152° Southeast 450 518 33,500  Level FlightAware ADS-B
Sat 12:05:00 AM 38.3790 -72.0150 152° Southeast 450 518 33,500  Level FlightAware ADS-B
Sat 12:05:37 AM 38.3210 -71.9760 152° Southeast 450 518 33,500  Level FlightAware ADS-B
Sat 12:06:14 AM 38.2640 -71.9370 152° Southeast 450 518 33,500  Level FlightAware ADS-B
Sat 12:07:03 AM 38.1870 -71.8850 152° Southeast 450 518 33,500  Level FlightAware ADS-B
Sat 12:07:49 AM 38.1150 -71.8360 152° Southeast 450 518 33,500  Level FlightAware ADS-B
Sat 12:08:25 AM 38.0590 -71.7980 152° Southeast 450 518 33,500  Level FlightAware ADS-B
Sat 12:09:25 AM 37.9650 -71.7350 152° Southeast 450 518 33,500  Level FlightAware ADS-B
Sat 12:10:01 AM 37.9090 -71.6970 152° Southeast 450 518 33,500  Level FlightAware ADS-B
Sat 12:10:49 AM 37.8340 -71.6470 152° Southeast 450 518 33,500  Level FlightAware ADS-B
Sat 12:11:25 AM 37.7780 -71.6090 152° Southeast 450 518 33,500  Level FlightAware ADS-B
Sat 12:12:14 AM 37.7010 -71.5570 152° Southeast 450 518 33,500  Level FlightAware ADS-B
Sat 12:12:50 AM 37.6450 -71.5200 152° Southeast 450 518 33,500  Level FlightAware ADS-B
Sat 12:13:38 AM 37.5700 -71.4690 152° Southeast 450 518 33,500 53 Level FlightAware ADS-B
Sat 12:21:00 AM 36.6982 -70.9803 155° Southeast  Level FlightAware Approximate
Sat 12:22:00 AM 36.5807 -70.9118 155° Southeast  Level FlightAware Approximate
Sat 12:22:13 AM 36.3333 -70.7667 156° South 472 543 34,000  Level New York Oceanic (ODAPS)
Sat 12:23:00 AM 36.4631 -70.8434 155° Southeast  Level FlightAware Approximate
Sat 12:24:00 AM 36.3455 -70.7752 155° Southeast  Level FlightAware Approximate
Sat 12:25:00 AM 36.2279 -70.7072 155° Southeast  Level FlightAware Approximate
Sat 12:26:00 AM 36.1102 -70.6394 155° Southeast  Level FlightAware Approximate
Sat 12:26:56 AM 35.7667 -70.4500 168° South 476 548 34,000  Level New York Oceanic (ODAPS)
Sat 12:27:00 AM 35.9925 -70.5718 155° Southeast  Level FlightAware Approximate
Sat 12:28:00 AM 35.6316 -70.4143 168° South 472 543 34,000  Level FlightAware Transoceanic
Sat 12:29:00 AM 35.4966 -70.3787 168° South 472 543 34,000  Level FlightAware Transoceanic
Sat 12:30:00 AM 35.3616 -70.3432 168° South 472 543 34,000  Level FlightAware Transoceanic
Sat 12:31:00 AM 35.2265 -70.3078 168° South 472 543 34,000  Level FlightAware Transoceanic
Sat 12:32:00 AM 35.0915 -70.2726 168° South 472 543 34,000  Level FlightAware Transoceanic
Sat 12:33:00 AM 34.9783 -70.2431 168° South 476 548 34,000  Level FlightAware Transoceanic
Sat 12:34:00 AM 34.8469 -70.2091 168° South 476 548 34,000  Level FlightAware Transoceanic
Sat 12:35:00 AM 34.7155 -70.1751 168° South 476 548 34,000  Level FlightAware Transoceanic
Sat 12:36:00 AM 34.5840 -70.1412 168° South 476 548 34,000  Level FlightAware Transoceanic
Sat 12:36:04 AM 34.5667 -70.1333 168° South 480 552 34,000  Level New York Oceanic (ODAPS)
Sat 12:37:00 AM 34.4525 -70.1075 168° South 476 548 34,000  Level FlightAware Transoceanic
Sat 12:38:00 AM 34.3211 -70.0738 168° South 476 548 34,000  Level FlightAware Transoceanic
Sat 12:39:00 AM 34.1896 -70.0402 168° South 476 548 34,000  Level FlightAware Transoceanic
Sat 12:40:00 AM 34.0581 -70.0068 168° South 476 548 34,000  Level FlightAware Transoceanic
Sat 12:41:00 AM 33.9266 -69.9734 168° South 476 548 34,000  Level FlightAware Transoceanic
Sat 12:42:00 AM 33.7524 -69.9268 168° South 480 552 34,000  Level FlightAware Transoceanic
Sat 12:43:00 AM 33.6167 -69.8928 168° South 480 552 34,000  Level FlightAware Transoceanic
Sat 12:44:00 AM 33.4809 -69.8588 168° South 480 552 34,000  Level FlightAware Transoceanic
Sat 12:45:00 AM 33.3452 -69.8250 168° South 480 552 34,000  Level FlightAware Transoceanic
Sat 12:45:40 AM 33.3000 -69.8167 168° South 485 558 34,000  Level New York Oceanic (ODAPS)
Sat 12:46:00 AM 33.2094 -69.7913 168° South 480 552 34,000  Level FlightAware Transoceanic
Sat 12:47:00 AM 33.0736 -69.7577 168° South 480 552 34,000  Level FlightAware Transoceanic
Sat 12:48:00 AM 32.9378 -69.7242 168° South 480 552 34,000  Level FlightAware Transoceanic
Sat 12:49:00 AM 32.8020 -69.6907 168° South 480 552 34,000  Level FlightAware Transoceanic
Sat 12:49:53 AM 32.7500 -69.6667 169° South 492 566 34,000  Level New York Oceanic (ODAPS)
Sat 12:50:00 AM 32.6662 -69.6574 168° South 480 552 34,000  Level FlightAware Transoceanic
Sat 12:51:00 AM 32.6336 -69.6515 168° South 485 558 34,000  Level FlightAware Transoceanic
Sat 12:52:00 AM 32.5003 -69.6188 168° South 485 558 34,000  Level FlightAware Transoceanic
Sat 12:53:00 AM 32.3670 -69.5862 168° South 485 558 34,000  Level FlightAware Transoceanic
Sat 12:54:00 AM 32.2337 -69.5536 168° South 485 558 34,000  Level FlightAware Transoceanic
Sat 12:55:00 AM 32.1003 -69.5212 168° South 485 558 34,000  Level FlightAware Transoceanic
Sat 12:56:00 AM 31.9573 -69.4788 169° South 492 566 34,000  Level FlightAware Transoceanic
Sat 12:57:00 AM 31.8252 -69.4478 169° South 492 566 34,000  Level FlightAware Transoceanic
Sat 12:58:00 AM 31.6930 -69.4169 169° South 492 566 34,000  Level FlightAware Transoceanic
Sat 12:59:00 AM 31.5609 -69.3861 169° South 492 566 34,000  Level FlightAware Transoceanic
Sat 01:00:00 AM 31.4287 -69.3554 169° South 492 566 34,000  Level FlightAware Transoceanic
Sat 01:01:00 AM 31.2966 -69.3247 169° South 492 566 34,000  Level FlightAware Transoceanic
Sat 01:02:00 AM 31.1644 -69.2942 169° South 492 566 34,000  Level FlightAware Transoceanic
Sat 01:03:00 AM 31.0322 -69.2637 169° South 492 566 34,000  Level FlightAware Transoceanic
Sat 01:03:26 AM 30.9000 -69.2333 168° South 497 572 34,000  Level New York Oceanic (ODAPS)
Sat 01:03:46 AM 30.8500 -69.2167 168° South 497 572 34,000  Level New York Oceanic (ODAPS)
Sat 01:04:00 AM 30.9000 -69.2333 168° South 492 566 34,000  Level FlightAware Transoceanic
Sat 01:05:00 AM 30.7637 -69.2008 168° South 492 566 34,000  Level FlightAware Transoceanic
Sat 01:06:00 AM 30.6274 -69.1684 168° South 492 566 34,000  Level FlightAware Transoceanic
Sat 01:07:00 AM 30.4911 -69.1361 168° South 492 566 34,000  Level FlightAware Transoceanic
Sat 01:08:00 AM 30.3548 -69.1039 168° South 492 566 34,000  Level FlightAware Transoceanic
Sat 01:09:00 AM 30.0940 -69.0425 169° South 497 572 34,000  Level FlightAware Transoceanic
Sat 01:10:00 AM 30.0365 -69.0248 169° South 497 572 34,000  Level FlightAware Transoceanic
Sat 01:11:00 AM 29.9009 -68.9931 169° South 497 572 34,000  Level FlightAware Transoceanic
Sat 01:12:00 AM 29.7653 -68.9615 169° South 497 572 34,000  Level FlightAware Transoceanic
Sat 01:13:00 AM 29.6297 -68.9300 169° South 497 572 34,000  Level FlightAware Transoceanic
Sat 01:14:00 AM 29.4940 -68.8986 169° South 497 572 34,000  Level FlightAware Transoceanic
Sat 01:15:00 AM 29.3584 -68.8672 169° South 497 572 34,000  Level FlightAware Transoceanic
Sat 01:16:00 AM 29.2228 -68.8360 169° South 497 572 34,000  Level FlightAware Transoceanic
Sat 01:17:00 AM 29.0871 -68.8048 169° South 497 572 34,000  Level FlightAware Transoceanic
Sat 01:17:40 AM 28.9500 -68.7667 169° South 507 583 34,000  Level New York Oceanic (ODAPS)
Sat 01:18:00 AM 28.9515 -68.7737 169° South 497 572 34,000  Level FlightAware Transoceanic
Sat 01:18:37 AM 28.8167 -68.7333 169° South 510 587 34,000  Level New York Oceanic (ODAPS)
Sat 01:19:00 AM 28.8158 -68.7427 169° South 497 572 34,000  Level FlightAware Transoceanic
Sat 01:20:00 AM 28.6801 -68.7118 169° South 497 572 34,000  Level FlightAware Transoceanic
Sat 01:21:00 AM 28.5444 -68.6809 169° South 497 572 34,000  Level FlightAware Transoceanic
Sat 01:22:00 AM 28.4087 -68.6502 169° South 497 572 34,000  Level FlightAware Transoceanic
Sat 01:23:00 AM 28.2717 -68.6131 169° South 507 583 34,000  Level FlightAware Transoceanic
Sat 01:24:00 AM 28.0175 -68.5535 169° South 510 587 34,000  Level FlightAware Transoceanic
Sat 01:25:00 AM 27.8843 -68.5237 169° South 510 587 34,000  Level FlightAware Transoceanic
Sat 01:25:03 AM 27.9333 -68.5333 169° South 508 585 34,000  Level New York Oceanic (ODAPS)
Sat 01:26:00 AM 27.7511 -68.4941 169° South 510 587 34,000  Level FlightAware Transoceanic
Sat 01:27:00 AM 27.6178 -68.4645 169° South 510 587 34,000  Level FlightAware Transoceanic
Sat 01:28:00 AM 27.4846 -68.4350 169° South 510 587 34,000  Level FlightAware Transoceanic
Sat 01:29:00 AM 27.3513 -68.4056 169° South 510 587 34,000  Level FlightAware Transoceanic
Sat 01:30:00 AM 27.2181 -68.3762 169° South 510 587 34,000  Level FlightAware Transoceanic
Sat 01:31:00 AM 27.1101 -68.3513 169° South 508 585 34,000  Level FlightAware Transoceanic
Sat 01:31:32 AM 27.0167 -68.3333 169° South 504 580 34,000  Level New York Oceanic (ODAPS)
Sat 01:32:00 AM 26.9729 -68.3213 169° South 508 585 34,000  Level FlightAware Transoceanic
Sat 01:33:00 AM 26.8357 -68.2913 169° South 508 585 34,000  Level FlightAware Transoceanic
Sat 01:34:00 AM 26.6984 -68.2613 169° South 508 585 34,000  Level FlightAware Transoceanic
Sat 01:35:00 AM 26.5612 -68.2315 169° South 508 585 34,000  Level FlightAware Transoceanic
Sat 01:36:00 AM 26.4239 -68.2017 169° South 508 585 34,000  Level FlightAware Transoceanic
Sat 01:37:00 AM 26.2072 -68.1569 169° South 504 580 34,000  Level FlightAware Transoceanic
Sat 01:38:00 AM 26.0723 -68.1278 169° South 504 580 34,000  Level FlightAware Transoceanic
Sat 01:39:00 AM 25.9374 -68.0987 169° South 504 580 34,000  Level FlightAware Transoceanic
Sat 01:40:00 AM 25.8024 -68.0696 169° South 504 580 34,000  Level FlightAware Transoceanic
Sat 01:41:00 AM 25.6675 -68.0407 169° South 504 580 34,000  Level FlightAware Transoceanic
Sat 01:42:00 AM 25.5325 -68.0118 169° South 504 580 34,000  Level FlightAware Transoceanic
Sat 01:43:00 AM 25.3976 -67.9830 169° South 504 580 34,000  Level FlightAware Transoceanic
Sat 01:43:05 AM 25.4667 -68.0000 169° South 496 571 34,000  Level New York Oceanic (ODAPS)
Sat 01:44:00 AM 25.2626 -67.9542 169° South 504 580 34,000  Level FlightAware Transoceanic
Sat 01:45:00 AM 25.1276 -67.9255 169° South 504 580 34,000  Level FlightAware Transoceanic
Sat 01:45:24 AM 25.1167 -67.9167 169° South 503 579 34,000  Level New York Oceanic (ODAPS)
Sat 01:46:00 AM 24.9927 -67.8969 169° South 504 580 34,000  Level FlightAware Transoceanic
Sat 01:47:00 AM 24.8577 -67.8683 169° South 504 580 34,000  Level FlightAware Transoceanic
Sat 01:48:00 AM 24.7227 -67.8398 169° South 504 580 34,000  Level FlightAware Transoceanic
Sat 01:49:00 AM 24.6420 -67.8245 169° South 496 571 34,000  Level FlightAware Transoceanic
Sat 01:50:00 AM 24.5046 -67.7955 169° South 496 571 34,000  Level FlightAware Transoceanic
Sat 01:51:00 AM 24.3093 -67.7479 169° South 503 579 34,000  Level FlightAware Transoceanic
Sat 01:51:39 AM 24.2667 -67.7500 169° South 489 563 34,000  Level New York Oceanic (ODAPS)
Sat 01:52:00 AM 24.1747 -67.7199 169° South 503 579 34,000  Level FlightAware Transoceanic
Sat 01:53:00 AM 24.0401 -67.6921 169° South 503 579 34,000  Level FlightAware Transoceanic
Sat 01:54:00 AM 23.9055 -67.6643 169° South 503 579 34,000  Level FlightAware Transoceanic
Sat 01:55:00 AM 23.7709 -67.6365 169° South 503 579 34,000  Level FlightAware Transoceanic
Sat 01:56:00 AM 23.6363 -67.6088 169° South 503 579 34,000  Level FlightAware Transoceanic
Sat 01:57:00 AM 23.5695 -67.6031 169° South 489 563 34,000  Level FlightAware Transoceanic
Sat 01:57:48 AM 23.4500 -67.5667 169° South 480 552 34,000  Level San Juan Center
Sat 01:58:00 AM 23.4300 -67.5740 169° South 489 563 34,000  Level FlightAware Transoceanic
Sat 01:58:48 AM 23.3167 -67.5333 167° South 480 552 34,000  Level San Juan Center
Sat 01:59:00 AM 23.2906 -67.5448 169° South 489 563 34,000  Level FlightAware Transoceanic
Sat 01:59:18 AM 23.2500 -67.5333 169° South 476 548 34,000  Level New York Oceanic (ODAPS)
Sat 01:59:49 AM 23.1833 -67.5167 169° South 480 552 34,000  Level San Juan Center
Sat 02:00:00 AM 23.1511 -67.5158 169° South 489 563 34,000  Level FlightAware Transoceanic
Sat 02:00:49 AM 23.0500 -67.4833 167° South 480 552 34,000  Level San Juan Center
Sat 02:01:00 AM 23.0116 -67.4868 169° South 489 563 34,000  Level FlightAware Transoceanic
Sat 02:02:00 AM 22.8722 -67.4578 169° South 489 563 34,000  Level FlightAware Transoceanic
Sat 02:03:00 AM 22.7327 -67.4290 169° South 489 563 34,000  Level FlightAware Transoceanic
Sat 02:05:52 AM 22.3840 -67.3530 167° South 477 549 34,000  Level FlightAware ADS-B
Sat 02:06:34 AM 22.2930 -67.3340 169° South 478 550 34,000  Level FlightAware ADS-B
Sat 02:07:08 AM 22.2333 -67.3167 170° South 476 548 34,000  Level New York Oceanic (ODAPS)
Sat 02:07:16 AM 22.1980 -67.3150 170° South 477 549 34,000  Level FlightAware ADS-B
Sat 02:08:06 AM 22.1030 -67.2950 169° South 477 549 34,000  Level FlightAware ADS-B
Sat 02:08:54 AM 22.0140 -67.2770 169° South 477 549 34,000  Level FlightAware ADS-B
Sat 02:09:29 AM 21.9090 -67.2560 169° South 478 550 34,000  Level FlightAware ADS-B
Sat 02:10:16 AM 21.8060 -67.2350 169° South 478 550 34,000  Level FlightAware ADS-B
Sat 02:10:56 AM 21.7320 -67.2200 169° South 479 551 34,000  Level FlightAware ADS-B
Sat 02:11:43 AM 21.6160 -67.1970 170° South 479 551 34,000  Level FlightAware ADS-B
Sat 02:12:20 AM 21.5380 -67.1820 170° South 479 551 34,000  Level FlightAware ADS-B
Sat 02:13:05 AM 21.4360 -67.1630 170° South 480 552 34,000  Level FlightAware ADS-B
Sat 02:13:49 AM 21.3430 -67.1310 162° South 482 555 34,000  Level FlightAware ADS-B
Sat 02:14:28 AM 21.2640 -67.0920 155° Southeast 483 556 34,000  Level FlightAware ADS-B
Sat 02:15:15 AM 21.1710 -67.0390 152° Southeast 484 557 34,000  Level FlightAware ADS-B
Sat 02:15:54 AM 21.0940 -66.9950 152° Southeast 485 558 34,000  Level FlightAware ADS-B
Sat 02:16:38 AM 21.0090 -66.9460 152° Southeast 486 559 34,000  Level FlightAware ADS-B
Sat 02:17:13 AM 20.9380 -66.9050 152° Southeast 487 560 34,000  Level FlightAware ADS-B
Sat 02:18:04 AM 20.8520 -66.8550 151° Southeast 487 560 34,000  Level FlightAware ADS-B
Sat 02:18:58 AM 20.7230 -66.8000 158° South 488 562 34,000  Level FlightAware ADS-B
Sat 02:19:38 AM 20.6480 -66.7790 165° South 488 562 34,000  Level FlightAware ADS-B
Sat 02:20:13 AM 20.5580 -66.7530 165° South 488 562 34,000  Level FlightAware ADS-B
Sat 02:21:00 AM 20.4560 -66.7240 165° South 488 562 34,000  Level FlightAware ADS-B
Sat 02:21:46 AM 20.3560 -66.6950 165° South 488 562 34,000  Level FlightAware ADS-B
Sat 02:22:27 AM 20.2770 -66.6710 164° South 488 562 34,000  Level FlightAware ADS-B
Sat 02:23:08 AM 20.1750 -66.6430 166° South 487 560 34,000  Level FlightAware ADS-B
Sat 02:23:52 AM 20.0790 -66.6150 165° South 487 560 34,000  Level FlightAware ADS-B
Sat 02:24:33 AM 19.9920 -66.5900 165° South 487 560 34,000  Level FlightAware ADS-B
Sat 02:25:12 AM 19.9050 -66.5670 166° South 486 559 34,000  Level FlightAware ADS-B
Sat 02:25:59 AM 19.8030 -66.5390 166° South 486 559 34,000  Level FlightAware ADS-B
Sat 02:26:37 AM 19.7220 -66.5170 166° South 484 557 34,000  Level FlightAware ADS-B
Sat 02:27:21 AM 19.6240 -66.4910 166° South 483 556 34,000  Level FlightAware ADS-B
Sat 02:28:02 AM 19.5340 -66.4660 165° South 485 558 34,000  Level FlightAware ADS-B
Sat 02:28:43 AM 19.4450 -66.4420 166° South 485 558 34,000  Level FlightAware ADS-B
Sat 02:29:25 AM 19.3540 -66.4170 165° South 486 559 34,000  Level FlightAware ADS-B
Sat 02:30:10 AM 19.2540 -66.3900 166° South 485 558 34,000  Level FlightAware ADS-B
Sat 02:30:49 AM 19.1700 -66.3680 166° South 485 558 34,000  Level FlightAware ADS-B
Sat 02:31:33 AM 19.0750 -66.3420 165° South 485 558 34,000  Level FlightAware ADS-B
Sat 02:32:11 AM 18.9910 -66.3200 166° South 484 557 34,000  Level FlightAware ADS-B
Sat 02:32:55 AM 18.8970 -66.2940 165° South 484 557 34,000  Level FlightAware ADS-B
Sat 02:33:39 AM 18.8000 -66.2680 166° South 483 556 34,000  Level FlightAware ADS-B
Sat 02:34:18 AM 18.7140 -66.2450 166° South 480 552 34,000  Level FlightAware ADS-B
Sat 02:35:04 AM 18.6160 -66.2190 166° South 479 551 34,000  Level FlightAware ADS-B
Sat 02:35:43 AM 18.5330 -66.1970 166° South 478 550 34,000  Level FlightAware ADS-B
Sat 02:36:28 AM 18.4360 -66.1710 166° South 477 549 34,000  Level FlightAware ADS-B
Sat 02:37:08 AM 18.3520 -66.1480 165° South 478 550 34,000  Level FlightAware ADS-B
Sat 02:37:51 AM 18.2570 -66.1230 166° South 478 550 34,000  Level FlightAware ADS-B
Sat 02:38:31 AM 18.1700 -66.1000 166° South 477 549 34,000  Level FlightAware ADS-B
Sat 02:39:15 AM 18.0770 -66.0750 166° South 473 544 34,000  Level FlightAware ADS-B
Sat 02:39:55 AM 17.9910 -66.0520 166° South 473 544 34,000  Level FlightAware ADS-B
Sat 02:40:39 AM 17.8980 -66.0270 166° South 471 542 34,000  Level FlightAware ADS-B
Sat 02:41:19 AM 17.8130 -66.0050 166° South 470 541 34,000  Level FlightAware ADS-B
Sat 02:42:03 AM 17.7210 -65.9800 165° South 469 540 34,000  Level FlightAware ADS-B
Sat 02:42:44 AM 17.6340 -65.9570 166° South 470 541 34,000  Level FlightAware ADS-B
Sat 02:43:28 AM 17.5410 -65.9330 166° South 469 540 34,000  Level FlightAware ADS-B
Sat 02:44:10 AM 17.4520 -65.9090 166° South 469 540 34,000  Level FlightAware ADS-B
Sat 02:44:51 AM 17.3660 -65.8860 166° South 468 539 34,000  Level FlightAware ADS-B
Sat 02:45:30 AM 17.2870 -65.8650 166° South 469 540 34,000  Level FlightAware ADS-B
Sat 02:46:17 AM 17.1980 -65.8410 166° South 469 540 34,000  Level FlightAware ADS-B
Sat 02:46:56 AM 17.1040 -65.8170 166° South 470 541 34,000  Level FlightAware ADS-B
Sat 02:47:37 AM 17.0340 -65.7980 165° South 470 541 34,000  Level FlightAware ADS-B
Sat 02:48:20 AM 16.9240 -65.7700 166° South 471 542 34,000  Level FlightAware ADS-B
Sat 02:49:14 AM 16.8220 -65.7420 165° South 470 541 34,000  Level FlightAware ADS-B
Sat 02:49:58 AM 16.7170 -65.7160 167° South 468 539 34,000  Level FlightAware ADS-B
Sat 02:50:38 AM 16.6440 -65.6960 165° South 468 539 34,000  Level FlightAware ADS-B
Sat 02:51:15 AM 16.5780 -65.6770 165° South 468 539 34,000 126 Level FlightAware ADS-B
Sat 02:52:13 AM 16.4470 -65.6440 166° South 470 541 34,200 396 Climbing FlightAware ADS-B
Sat 02:53:01 AM 16.3390 -65.6160 166° South 477 549 34,700 357 Climbing FlightAware ADS-B
Sat 02:53:37 AM 16.2740 -65.5980 165° South 477 549 34,700  Level FlightAware ADS-B
Sat 02:54:26 AM 16.1850 -65.5730 165° South 477 549 34,700  Level FlightAware ADS-B
Sat 02:55:03 AM 16.1180 -65.5540 165° South 477 549 34,700  Level FlightAware ADS-B
Sat 02:55:51 AM 16.0310 -65.5300 165° South 477 549 34,700  Level FlightAware ADS-B
Sat 02:56:27 AM 15.9660 -65.5120 165° South 477 549 34,700  Level FlightAware ADS-B
Sat 02:57:15 AM 15.8790 -65.4880 165° South 477 549 34,700  Level FlightAware ADS-B
Sat 02:57:51 AM 15.8140 -65.4690 164° South 477 549 34,700  Level FlightAware ADS-B
Sat 02:58:40 AM 15.7250 -65.4450 165° South 477 549 34,700  Level FlightAware ADS-B
Sat 02:59:16 AM 15.6600 -65.4270 165° South 477 549 34,700  Level FlightAware ADS-B
Sat 02:59:54 AM 15.5910 -65.4070 164° South 477 549 34,700  Level FlightAware ADS-B
Sat 03:00:42 AM 15.5040 -65.3830 165° South 477 549 34,700  Level FlightAware ADS-B
Sat 03:01:19 AM 15.4370 -65.3650 165° South 477 549 34,700  Level FlightAware ADS-B
Sat 03:02:07 AM 15.3500 -65.3400 165° South 477 549 34,700 36 Level FlightAware ADS-B
Sat 03:06:00 AM 14.8610 -65.2109 163° South  Level FlightAware Approximate
Sat 03:07:00 AM 14.7368 -65.1706 163° South  Level FlightAware Approximate
Sat 03:08:00 AM 14.6126 -65.1302 163° South  Level FlightAware Approximate
Sat 03:09:00 AM 14.4884 -65.0900 163° South  Level FlightAware Approximate
Sat 03:09:37 AM 14.2290 -65.0060 163° South 475 547 35,000  Level FlightAware ADS-B
Sat 03:10:15 AM 14.1420 -64.9780 163° South 475 547 35,000  Level FlightAware ADS-B
Sat 03:10:53 AM 14.0750 -64.9550 162° South 475 547 35,000  Level FlightAware ADS-B
Sat 03:12:00 AM 13.9190 -64.9110 165° South 473 544 35,000  Level FlightAware ADS-B
Sat 03:12:38 AM 13.8510 -64.8930 166° South 473 544 35,000  Level FlightAware ADS-B
Sat 03:13:18 AM 13.7640 -64.8640 162° South 473 544 35,000  Level FlightAware ADS-B
Sat 03:14:00 AM 13.8140 -64.8800 343° North 473 544 35,000  Level FlightAware ADS-B
Sat 03:15:15 AM 13.5080 -64.7820 163° South 472 543 35,000  Level FlightAware ADS-B
Sat 03:15:53 AM 13.4410 -64.7590 162° South 472 543 35,000  Level FlightAware ADS-B
Sat 03:16:41 AM 13.3560 -64.7310 162° South 472 543 35,000  Level FlightAware ADS-B
Sat 03:17:20 AM 13.2460 -64.6990 164° South 471 542 35,000  Level FlightAware ADS-B
Sat 03:18:00 AM 13.1620 -64.6720 163° South 469 540 35,000  Level FlightAware ADS-B
Sat 03:18:49 AM 13.0760 -64.6440 162° South 469 540 35,000  Level FlightAware ADS-B
Sat 03:19:38 AM 12.9840 -64.5870 149° Southeast 472 543 35,000  Level FlightAware ADS-B
Sat 03:20:10 AM 13.0290 -64.6130 331° Northwest 466 536 35,000  Level FlightAware ADS-B
Sat 03:20:57 AM 12.8160 -64.5620 167° South 465 535 35,000  Level FlightAware ADS-B
Sat 03:21:35 AM 12.7220 -64.5300 162° South 470 541 35,000  Level FlightAware ADS-B
Sat 03:22:32 AM 12.6080 -64.4930 162° South 476 548 35,000  Level FlightAware ADS-B
Sat 03:23:10 AM 12.5230 -64.4650 162° South 474 545 35,000  Level FlightAware ADS-B
Sat 03:23:54 AM 12.4470 -64.4390 162° South 474 545 35,000  Level FlightAware ADS-B
Sat 03:24:38 AM 12.3540 -64.4090 163° South 475 547 35,000  Level FlightAware ADS-B
Sat 03:25:18 AM 12.2680 -64.3820 163° South 475 547 35,000  Level FlightAware ADS-B
Sat 03:25:55 AM 12.2020 -64.3600 162° South 475 547 35,000  Level FlightAware ADS-B
Sat 03:26:41 AM 12.1210 -64.3330 162° South 475 547 35,000  Level FlightAware ADS-B
Sat 03:27:40 AM 12.0160 -64.2980 162° South 475 547 35,000  Level FlightAware ADS-B
Sat 03:28:14 AM 11.9560 -64.2780 162° South 475 547 35,000  Level FlightAware ADS-B
Sat 03:29:06 AM 11.7860 -64.2290 164° South 475 547 35,000  Level FlightAware ADS-B
Sat 03:29:42 AM 11.7220 -64.2070 161° South 475 547 35,000  Level FlightAware ADS-B
Sat 03:30:38 AM 11.5980 -64.1700 164° South 472 543 35,000  Level FlightAware ADS-B
Sat 03:32:09 AM 11.5160 -64.1430 162° South 472 543 35,000  Level FlightAware ADS-B
Sat 03:32:45 AM 11.4530 -64.1220 162° South 472 543 35,000  Level FlightAware ADS-B
Sat 03:35:00 AM 11.1772 -64.0335 163° South  Level FlightAware Approximate
Sat 03:36:00 AM 11.0547 -63.9942 163° South  Level FlightAware Approximate
Sat 03:37:00 AM 10.9323 -63.9550 163° South  Level FlightAware Approximate
Sat 03:38:00 AM 10.8147 -63.9031 156° South  Level FlightAware Approximate
Sat 03:39:00 AM 10.6978 -63.8494 156° South  Level FlightAware Approximate
Sat 03:40:00 AM 10.5809 -63.7958 156° South  Level FlightAware Approximate
Sat 03:41:00 AM 10.4639 -63.7422 156° South  Level FlightAware Approximate
Sat 03:42:00 AM 10.3470 -63.6886 156° South  Level FlightAware Approximate
Sat 03:43:00 AM 10.2301 -63.6351 156° South  Level FlightAware Approximate
Sat 03:44:00 AM 10.1131 -63.5816 156° South  Level FlightAware Approximate
Sat 03:45:00 AM 9.9962 -63.5281 156° South  Level FlightAware Approximate
Sat 03:46:00 AM 9.8792 -63.4747 156° South  Level FlightAware Approximate
Sat 03:47:00 AM 9.7622 -63.4214 156° South  Level FlightAware Approximate
Sat 03:48:00 AM 9.6450 -63.3679 156° South  Level FlightAware Approximate
Sat 03:49:00 AM 9.5278 -63.3145 156° South  Level FlightAware Approximate
Sat 03:50:00 AM 9.4106 -63.2612 156° South  Level FlightAware Approximate
Sat 03:51:00 AM 9.2934 -63.2079 156° South  Level FlightAware Approximate
Sat 03:52:00 AM 9.1761 -63.1546 156° South  Level FlightAware Approximate
Sat 03:53:00 AM 9.0589 -63.1013 156° South  Level FlightAware Approximate
Sat 03:54:00 AM 8.9416 -63.0481 156° South  Level FlightAware Approximate
Sat 03:55:00 AM 8.8244 -62.9949 156° South  Level FlightAware Approximate
Sat 03:56:00 AM 8.7071 -62.9418 156° South  Level FlightAware Approximate
Sat 03:57:00 AM 8.5898 -62.8886 156° South  Level FlightAware Approximate
Sat 03:58:00 AM 8.4726 -62.8356 156° South  Level FlightAware Approximate
Sat 03:59:00 AM 8.3555 -62.7826 156° South  Level FlightAware Approximate
Sat 04:00:00 AM 8.2375 -62.7320 159° South  Level FlightAware Approximate
Sat 04:01:00 AM 8.1179 -62.6852 159° South  Level FlightAware Approximate
Sat 04:02:00 AM 7.9983 -62.6383 159° South  Level FlightAware Approximate
Sat 04:03:00 AM 7.8787 -62.5915 159° South  Level FlightAware Approximate
Sat 04:04:00 AM 7.7591 -62.5448 159° South  Level FlightAware Approximate
Sat 04:05:00 AM 7.6395 -62.4980 159° South  Level FlightAware Approximate
Sat 04:06:00 AM 7.5199 -62.4513 159° South  Level FlightAware Approximate
Sat 04:07:00 AM 7.4001 -62.4052 159° South  Level FlightAware Approximate
Sat 04:08:00 AM 7.2802 -62.3592 159° South  Level FlightAware Approximate
Sat 04:09:00 AM 7.1604 -62.3132 159° South  Level FlightAware Approximate
Sat 04:10:00 AM 7.0405 -62.2672 159° South  Level FlightAware Approximate
Sat 04:11:00 AM 6.9206 -62.2212 159° South  Level FlightAware Approximate
Sat 04:12:00 AM 6.8008 -62.1753 159° South  Level FlightAware Approximate
Sat 04:13:00 AM 6.6809 -62.1294 159° South  Level FlightAware Approximate
Sat 04:14:00 AM 6.5610 -62.0835 159° South  Level FlightAware Approximate
Sat 04:15:00 AM 6.4411 -62.0377 159° South  Level FlightAware Approximate
Sat 04:16:00 AM 6.3212 -61.9918 159° South  Level FlightAware Approximate
Sat 04:17:00 AM 6.2013 -61.9460 159° South  Level FlightAware Approximate
Sat 04:18:00 AM 6.0814 -61.9002 159° South  Level FlightAware Approximate
Sat 04:19:00 AM 5.9615 -61.8544 159° South  Level FlightAware Approximate
Sat 04:20:00 AM 5.8415 -61.8090 159° South  Level FlightAware Approximate
Sat 04:21:00 AM 5.7214 -61.7636 159° South  Level FlightAware Approximate
Sat 04:22:00 AM 5.6014 -61.7182 159° South  Level FlightAware Approximate
Sat 04:23:00 AM 5.4813 -61.6729 159° South  Level FlightAware Approximate
Sat 04:24:00 AM 5.3613 -61.6276 159° South  Level FlightAware Approximate
Sat 04:25:00 AM 5.2412 -61.5823 159° South  Level FlightAware Approximate
Sat 04:26:00 AM 5.1212 -61.5370 159° South  Level FlightAware Approximate
Sat 04:27:00 AM 5.0011 -61.4917 159° South  Level FlightAware Approximate
Sat 04:28:00 AM 4.8810 -61.4465 159° South  Level FlightAware Approximate
Sat 04:29:00 AM 4.7610 -61.4012 159° South  Level FlightAware Approximate
Sat 04:30:00 AM 4.6409 -61.3560 159° South  Level FlightAware Approximate
Sat 04:31:00 AM 4.5208 -61.3108 159° South  Level FlightAware Approximate
Sat 04:32:00 AM 4.4007 -61.2656 159° South  Level FlightAware Approximate
Sat 04:33:00 AM 4.2806 -61.2205 159° South  Level FlightAware Approximate
Sat 04:34:00 AM 4.1605 -61.1753 159° South  Level FlightAware Approximate
Sat 04:35:00 AM 4.0405 -61.1301 159° South  Level FlightAware Approximate
Sat 04:36:00 AM 3.9204 -61.0850 159° South  Level FlightAware Approximate
Sat 04:37:00 AM 3.8003 -61.0399 159° South  Level FlightAware Approximate
Sat 04:38:00 AM 3.6802 -60.9948 159° South  Level FlightAware Approximate
Sat 04:39:00 AM 3.5601 -60.9497 159° South  Level FlightAware Approximate
Sat 04:40:00 AM 3.4400 -60.9046 159° South  Level FlightAware Approximate
Sat 04:41:00 AM 3.3199 -60.8596 159° South  Level FlightAware Approximate
Sat 04:42:00 AM 3.1997 -60.8145 159° South  Level FlightAware Approximate
Sat 04:43:00 AM 3.0796 -60.7694 159° South  Level FlightAware Approximate
Sat 04:44:00 AM 2.9595 -60.7244 159° South  Level FlightAware Approximate
Sat 04:45:00 AM 2.8399 -60.6782 153° Southeast  Level FlightAware Approximate
Sat 04:46:00 AM 2.7258 -60.6197 153° Southeast  Level FlightAware Approximate
Sat 04:47:00 AM 2.6116 -60.5612 153° Southeast  Level FlightAware Approximate
Sat 04:48:00 AM 2.4974 -60.5028 153° Southeast  Level FlightAware Approximate
Sat 04:49:00 AM 2.3832 -60.4443 153° Southeast  Level FlightAware Approximate
Sat 04:50:00 AM 2.2690 -60.3859 153° Southeast  Level FlightAware Approximate
Sat 04:51:00 AM 2.1548 -60.3274 153° Southeast  Level FlightAware Approximate
Sat 04:52:00 AM 2.0406 -60.2690 153° Southeast  Level FlightAware Approximate
Sat 04:53:00 AM 1.9264 -60.2106 153° Southeast  Level FlightAware Approximate
Sat 04:54:00 AM 1.8122 -60.1522 153° Southeast  Level FlightAware Approximate
Sat 04:55:00 AM 1.6980 -60.0938 153° Southeast  Level FlightAware Approximate
Sat 04:56:00 AM 1.5838 -60.0354 153° Southeast  Level FlightAware Approximate
Sat 04:57:00 AM 1.4696 -59.9771 153° Southeast  Level FlightAware Approximate
Sat 04:58:00 AM 1.3554 -59.9187 153° Southeast  Level FlightAware Approximate
Sat 04:59:00 AM 1.2411 -59.8604 153° Southeast  Level FlightAware Approximate
Sat 05:00:00 AM 1.1269 -59.8021 153° Southeast  Level FlightAware Approximate
Sat 05:01:00 AM 1.0127 -59.7438 153° Southeast  Level FlightAware Approximate
Sat 05:02:00 AM 0.8984 -59.6855 153° Southeast  Level FlightAware Approximate
Sat 05:03:00 AM 0.7842 -59.6272 153° Southeast  Level FlightAware Approximate
Sat 05:04:00 AM 0.6699 -59.5689 153° Southeast  Level FlightAware Approximate
Sat 05:05:00 AM 0.5557 -59.5106 153° Southeast  Level FlightAware Approximate
Sat 05:06:00 AM 0.4414 -59.4523 153° Southeast  Level FlightAware Approximate
Sat 05:07:00 AM 0.3272 -59.3940 153° Southeast  Level FlightAware Approximate
Sat 05:08:00 AM 0.2130 -59.3357 153° Southeast  Level FlightAware Approximate
Sat 05:09:00 AM 0.0987 -59.2774 153° Southeast  Level FlightAware Approximate
Sat 05:10:00 AM -0.0155 -59.2191 153° Southeast  Level FlightAware Approximate
Sat 05:11:00 AM -0.1298 -59.1608 153° Southeast  Level FlightAware Approximate
Sat 05:12:00 AM -0.2440 -59.1026 153° Southeast  Level FlightAware Approximate
Sat 05:13:00 AM -0.3583 -59.0443 153° Southeast  Level FlightAware Approximate
Sat 05:14:00 AM -0.4725 -58.9860 153° Southeast  Level FlightAware Approximate
Sat 05:15:00 AM -0.5868 -58.9277 153° Southeast  Level FlightAware Approximate
Sat 05:16:00 AM -0.7010 -58.8694 153° Southeast  Level FlightAware Approximate
Sat 05:17:00 AM -0.8152 -58.8111 153° Southeast  Level FlightAware Approximate
Sat 05:18:00 AM -0.9295 -58.7528 153° Southeast  Level FlightAware Approximate
Sat 05:19:00 AM -1.0437 -58.6945 153° Southeast  Level FlightAware Approximate
Sat 05:20:00 AM -1.1580 -58.6362 153° Southeast  Level FlightAware Approximate
Sat 05:21:00 AM -1.2722 -58.5779 153° Southeast  Level FlightAware Approximate
Sat 05:22:00 AM -1.3865 -58.5196 153° Southeast  Level FlightAware Approximate
Sat 05:23:00 AM -1.5007 -58.4612 153° Southeast  Level FlightAware Approximate
Sat 05:24:00 AM -1.6149 -58.4029 153° Southeast  Level FlightAware Approximate
Sat 05:25:00 AM -1.7292 -58.3446 153° Southeast  Level FlightAware Approximate
Sat 05:26:00 AM -1.8434 -58.2862 153° Southeast  Level FlightAware Approximate
Sat 05:27:00 AM -1.9576 -58.2279 153° Southeast  Level FlightAware Approximate
Sat 05:28:00 AM -2.0718 -58.1695 153° Southeast  Level FlightAware Approximate
Sat 05:29:00 AM -2.1861 -58.1111 153° Southeast  Level FlightAware Approximate
Sat 05:30:00 AM -2.3003 -58.0528 153° Southeast  Level FlightAware Approximate
Sat 05:31:00 AM -2.4145 -57.9944 153° Southeast  Level FlightAware Approximate
Sat 05:32:00 AM -2.5287 -57.9360 153° Southeast  Level FlightAware Approximate
Sat 05:33:00 AM -2.6429 -57.8776 153° Southeast  Level FlightAware Approximate
Sat 05:34:00 AM -2.7571 -57.8191 153° Southeast  Level FlightAware Approximate
Sat 05:35:00 AM -2.8714 -57.7607 153° Southeast  Level FlightAware Approximate
Sat 05:36:00 AM -2.9856 -57.7023 153° Southeast  Level FlightAware Approximate
Sat 05:37:00 AM -3.0998 -57.6438 153° Southeast  Level FlightAware Approximate
Sat 05:38:00 AM -3.2140 -57.5854 153° Southeast  Level FlightAware Approximate
Sat 05:39:00 AM -3.3282 -57.5269 153° Southeast  Level FlightAware Approximate
Sat 05:40:00 AM -3.4424 -57.4684 153° Southeast  Level FlightAware Approximate
Sat 05:41:00 AM -3.5566 -57.4099 153° Southeast  Level FlightAware Approximate
Sat 05:42:00 AM -3.6707 -57.3514 153° Southeast  Level FlightAware Approximate
Sat 05:43:00 AM -3.7849 -57.2928 153° Southeast  Level FlightAware Approximate
Sat 05:44:00 AM -3.8991 -57.2343 153° Southeast  Level FlightAware Approximate
Sat 05:45:00 AM -4.0133 -57.1757 153° Southeast  Level FlightAware Approximate
Sat 05:46:00 AM -4.1274 -57.1171 153° Southeast  Level FlightAware Approximate
Sat 05:47:00 AM -4.2416 -57.0585 153° Southeast  Level FlightAware Approximate
Sat 05:48:00 AM -4.3558 -56.9999 153° Southeast  Level FlightAware Approximate
Sat 05:49:00 AM -4.4699 -56.9413 153° Southeast  Level FlightAware Approximate
Sat 05:50:00 AM -4.5841 -56.8826 153° Southeast  Level FlightAware Approximate
Sat 05:51:00 AM -4.6982 -56.8240 153° Southeast  Level FlightAware Approximate
Sat 05:52:00 AM -4.8124 -56.7653 153° Southeast  Level FlightAware Approximate
Sat 05:53:00 AM -4.9265 -56.7066 153° Southeast  Level FlightAware Approximate
Sat 05:54:00 AM -5.0406 -56.6478 153° Southeast  Level FlightAware Approximate
Sat 05:55:00 AM -5.1548 -56.5891 153° Southeast  Level FlightAware Approximate
Sat 05:56:00 AM -5.2689 -56.5303 153° Southeast  Level FlightAware Approximate
Sat 05:57:00 AM -5.3830 -56.4715 153° Southeast  Level FlightAware Approximate
Sat 05:58:00 AM -5.4971 -56.4127 153° Southeast  Level FlightAware Approximate
Sat 05:59:00 AM -5.6112 -56.3539 153° Southeast  Level FlightAware Approximate
Sat 06:00:00 AM -5.7253 -56.2950 153° Southeast  Level FlightAware Approximate
Sat 06:01:00 AM -5.8394 -56.2361 153° Southeast  Level FlightAware Approximate
Sat 06:02:00 AM -5.9535 -56.1772 153° Southeast  Level FlightAware Approximate
Sat 06:03:00 AM -6.0676 -56.1183 153° Southeast  Level FlightAware Approximate
Sat 06:04:00 AM -6.1817 -56.0593 153° Southeast  Level FlightAware Approximate
Sat 06:05:00 AM -6.2957 -56.0003 153° Southeast  Level FlightAware Approximate
Sat 06:06:00 AM -6.4098 -55.9413 153° Southeast  Level FlightAware Approximate
Sat 06:07:00 AM -6.5238 -55.8823 153° Southeast  Level FlightAware Approximate
Sat 06:08:00 AM -6.6379 -55.8232 153° Southeast  Level FlightAware Approximate
Sat 06:09:00 AM -6.7519 -55.7641 153° Southeast  Level FlightAware Approximate
Sat 06:10:00 AM -6.8660 -55.7050 153° Southeast  Level FlightAware Approximate
Sat 06:11:00 AM -6.9800 -55.6459 153° Southeast  Level FlightAware Approximate
Sat 06:12:00 AM -7.0940 -55.5867 153° Southeast  Level FlightAware Approximate
Sat 06:13:00 AM -7.2080 -55.5275 153° Southeast  Level FlightAware Approximate
Sat 06:14:00 AM -7.3220 -55.4683 153° Southeast  Level FlightAware Approximate
Sat 06:15:00 AM -7.4360 -55.4090 153° Southeast  Level FlightAware Approximate
Sat 06:16:00 AM -7.5500 -55.3497 153° Southeast  Level FlightAware Approximate
Sat 06:17:00 AM -7.6640 -55.2904 153° Southeast  Level FlightAware Approximate
Sat 06:18:00 AM -7.7779 -55.2310 153° Southeast  Level FlightAware Approximate
Sat 06:19:00 AM -7.8919 -55.1716 153° Southeast  Level FlightAware Approximate
Sat 06:20:00 AM -8.0059 -55.1122 153° Southeast  Level FlightAware Approximate
Sat 06:21:00 AM -8.1198 -55.0527 153° Southeast  Level FlightAware Approximate
Sat 06:22:00 AM -8.2338 -54.9932 153° Southeast  Level FlightAware Approximate
Sat 06:23:00 AM -8.3473 -54.9339 153° Southeast  Level FlightAware Approximate
Sat 06:24:00 AM -8.4608 -54.8746 153° Southeast  Level FlightAware Approximate
Sat 06:25:00 AM -8.5743 -54.8152 153° Southeast  Level FlightAware Approximate
Sat 06:26:00 AM -8.6877 -54.7558 153° Southeast  Level FlightAware Approximate
Sat 06:27:00 AM -8.8012 -54.6964 153° Southeast  Level FlightAware Approximate
Sat 06:28:00 AM -8.9147 -54.6369 153° Southeast  Level FlightAware Approximate
Sat 06:29:00 AM -9.0281 -54.5774 153° Southeast  Level FlightAware Approximate
Sat 06:30:00 AM -9.1416 -54.5178 153° Southeast  Level FlightAware Approximate
Sat 06:31:00 AM -9.2550 -54.4582 153° Southeast  Level FlightAware Approximate
Sat 06:32:00 AM -9.3685 -54.3986 153° Southeast  Level FlightAware Approximate
Sat 06:33:00 AM -9.4819 -54.3389 153° Southeast  Level FlightAware Approximate
Sat 06:34:00 AM -9.5953 -54.2792 153° Southeast  Level FlightAware Approximate
Sat 06:35:00 AM -9.7087 -54.2194 153° Southeast  Level FlightAware Approximate
Sat 06:36:00 AM -9.8221 -54.1596 153° Southeast  Level FlightAware Approximate
Sat 06:37:00 AM -9.9355 -54.0998 153° Southeast  Level FlightAware Approximate
Sat 06:38:00 AM -10.0488 -54.0399 153° Southeast  Level FlightAware Approximate
Sat 06:39:00 AM -10.1622 -53.9800 153° Southeast  Level FlightAware Approximate
Sat 06:40:00 AM -10.2755 -53.9201 153° Southeast  Level FlightAware Approximate
Sat 06:41:00 AM -10.3889 -53.8601 152° Southeast  Level FlightAware Approximate
Sat 06:42:00 AM -10.5022 -53.8000 152° Southeast  Level FlightAware Approximate
Sat 06:43:00 AM -10.6155 -53.7399 152° Southeast  Level FlightAware Approximate
Sat 06:44:00 AM -10.7288 -53.6798 152° Southeast  Level FlightAware Approximate
Sat 06:45:00 AM -10.8421 -53.6196 152° Southeast  Level FlightAware Approximate
Sat 06:46:00 AM -10.9554 -53.5594 152° Southeast  Level FlightAware Approximate
Sat 06:47:00 AM -11.0686 -53.4991 152° Southeast  Level FlightAware Approximate
Sat 06:48:00 AM -11.1819 -53.4388 152° Southeast  Level FlightAware Approximate
Sat 06:49:00 AM -11.2951 -53.3784 152° Southeast  Level FlightAware Approximate
Sat 06:50:00 AM -11.4083 -53.3180 152° Southeast  Level FlightAware Approximate
Sat 06:51:00 AM -11.5216 -53.2575 152° Southeast  Level FlightAware Approximate
Sat 06:52:00 AM -11.6348 -53.1970 152° Southeast  Level FlightAware Approximate
Sat 06:53:00 AM -11.7479 -53.1365 152° Southeast  Level FlightAware Approximate
Sat 06:54:00 AM -11.8611 -53.0759 152° Southeast  Level FlightAware Approximate
Sat 06:55:00 AM -11.9743 -53.0152 152° Southeast  Level FlightAware Approximate
Sat 06:56:00 AM -12.0874 -52.9545 152° Southeast  Level FlightAware Approximate
Sat 06:57:00 AM -12.2006 -52.8937 152° Southeast  Level FlightAware Approximate
Sat 06:58:00 AM -12.3137 -52.8329 152° Southeast  Level FlightAware Approximate
Sat 06:59:00 AM -12.4268 -52.7720 152° Southeast  Level FlightAware Approximate
Sat 07:00:00 AM -12.5399 -52.7111 152° Southeast  Level FlightAware Approximate
Sat 07:01:00 AM -12.6530 -52.6502 152° Southeast  Level FlightAware Approximate
Sat 07:02:00 AM -12.7661 -52.5891 152° Southeast  Level FlightAware Approximate
Sat 07:03:00 AM -12.8791 -52.5280 152° Southeast  Level FlightAware Approximate
Sat 07:04:00 AM -12.9922 -52.4669 152° Southeast  Level FlightAware Approximate
Sat 07:05:00 AM -13.1052 -52.4057 152° Southeast  Level FlightAware Approximate
Sat 07:06:00 AM -13.2182 -52.3445 152° Southeast  Level FlightAware Approximate
Sat 07:07:00 AM -13.3312 -52.2831 152° Southeast  Level FlightAware Approximate
Sat 07:08:00 AM -13.4442 -52.2218 152° Southeast  Level FlightAware Approximate
Sat 07:09:00 AM -13.5571 -52.1604 152° Southeast  Level FlightAware Approximate
Sat 07:10:00 AM -13.6701 -52.0989 152° Southeast  Level FlightAware Approximate
Sat 07:11:00 AM -13.7830 -52.0373 152° Southeast  Level FlightAware Approximate
Sat 07:12:00 AM -13.8960 -51.9757 152° Southeast  Level FlightAware Approximate
Sat 07:13:00 AM -14.0089 -51.9141 152° Southeast  Level FlightAware Approximate
Sat 07:14:00 AM -14.1218 -51.8524 152° Southeast  Level FlightAware Approximate
Sat 07:15:00 AM -14.2346 -51.7906 152° Southeast  Level FlightAware Approximate
Sat 07:16:00 AM -14.3475 -51.7287 152° Southeast  Level FlightAware Approximate
Sat 07:17:00 AM -14.4603 -51.6669 152° Southeast  Level FlightAware Approximate
Sat 07:18:00 AM -14.5732 -51.6049 152° Southeast  Level FlightAware Approximate
Sat 07:19:00 AM -14.6860 -51.5429 152° Southeast  Level FlightAware Approximate
Sat 07:20:00 AM -14.7988 -51.4808 152° Southeast  Level FlightAware Approximate
Sat 07:21:00 AM -14.9116 -51.4186 152° Southeast  Level FlightAware Approximate
Sat 07:22:00 AM -15.0243 -51.3564 152° Southeast  Level FlightAware Approximate
Sat 07:23:00 AM -15.1371 -51.2941 152° Southeast  Level FlightAware Approximate
Sat 07:24:00 AM -15.2498 -51.2317 152° Southeast  Level FlightAware Approximate
Sat 07:25:00 AM -15.3625 -51.1693 152° Southeast  Level FlightAware Approximate
Sat 07:26:00 AM -15.4752 -51.1068 152° Southeast  Level FlightAware Approximate
Sat 07:27:00 AM -15.5879 -51.0443 152° Southeast  Level FlightAware Approximate
Sat 07:28:00 AM -15.7005 -50.9816 152° Southeast  Level FlightAware Approximate
Sat 07:29:00 AM -15.8132 -50.9189 152° Southeast  Level FlightAware Approximate
Sat 07:30:00 AM -15.9258 -50.8562 152° Southeast  Level FlightAware Approximate
Sat 07:31:00 AM -16.0384 -50.7933 152° Southeast  Level FlightAware Approximate
Sat 07:32:00 AM -16.1510 -50.7304 152° Southeast  Level FlightAware Approximate
Sat 07:33:00 AM -16.2636 -50.6674 152° Southeast  Level FlightAware Approximate
Sat 07:34:00 AM -16.3761 -50.6044 152° Southeast  Level FlightAware Approximate
Sat 07:35:00 AM -16.4886 -50.5412 152° Southeast  Level FlightAware Approximate
Sat 07:36:00 AM -16.6012 -50.4781 152° Southeast  Level FlightAware Approximate
Sat 07:37:00 AM -16.7136 -50.4148 152° Southeast  Level FlightAware Approximate
Sat 07:37:41 AM -18.2530 -49.8960 152° Southeast 486 559 35,000  Level FlightAware ADS-B
Sat 07:38:00 AM -16.8261 -50.3514 152° Southeast  Level FlightAware Approximate
Sat 07:38:20 AM -18.3340 -49.8530 153° Southeast 485 558 35,000  Level FlightAware ADS-B
Sat 07:39:04 AM -18.4210 -49.8070 153° Southeast 484 557 35,000  Level FlightAware ADS-B
Sat 07:39:44 AM -18.5030 -49.7640 154° Southeast 484 557 35,000  Level FlightAware ADS-B
Sat 07:40:28 AM -18.5920 -49.7170 153° Southeast 484 557 35,000  Level FlightAware ADS-B
Sat 07:41:08 AM -18.6710 -49.6740 153° Southeast 484 557 35,000  Level FlightAware ADS-B
Sat 07:41:52 AM -18.7600 -49.6270 153° Southeast 485 558 35,000  Level FlightAware ADS-B
Sat 07:42:50 AM -18.8660 -49.5700 153° Southeast 485 558 35,000  Level FlightAware ADS-B
Sat 07:43:29 AM -18.9510 -49.5240 153° Southeast 487 560 35,000  Level FlightAware ADS-B
Sat 07:44:14 AM -19.0440 -49.4720 152° Southeast 488 562 35,000  Level FlightAware ADS-B
Sat 07:45:10 AM -19.1560 -49.4100 152° Southeast 488 562 35,000  Level FlightAware ADS-B
Sat 07:45:50 AM -19.2350 -49.3670 153° Southeast 486 559 35,000  Level FlightAware ADS-B
Sat 07:46:47 AM -19.3490 -49.3040 152° Southeast 483 556 35,000  Level FlightAware ADS-B
Sat 07:47:43 AM -19.4600 -49.2430 153° Southeast 483 556 35,000  Level FlightAware ADS-B
Sat 07:48:23 AM -19.5380 -49.2000 153° Southeast 472 543 35,000  Level FlightAware ADS-B
Sat 07:49:06 AM -19.6230 -49.1530 152° Southeast 470 541 35,000  Level FlightAware ADS-B
Sat 07:49:48 AM -19.7040 -49.1070 152° Southeast 471 542 35,000  Level FlightAware ADS-B
Sat 07:50:29 AM -19.7830 -49.0640 153° Southeast 472 543 35,000  Level FlightAware ADS-B
Sat 07:51:13 AM -19.8690 -49.0160 152° Southeast 472 543 35,000  Level FlightAware ADS-B
Sat 07:51:53 AM -19.9470 -48.9720 152° Southeast 473 544 35,000  Level FlightAware ADS-B
Sat 07:52:35 AM -20.0280 -48.9280 153° Southeast 473 544 35,000  Level FlightAware ADS-B
Sat 07:53:13 AM -20.1020 -48.8860 152° Southeast 474 545 35,000  Level FlightAware ADS-B
Sat 07:54:01 AM -20.1940 -48.8340 152° Southeast 475 547 35,000  Level FlightAware ADS-B
Sat 07:54:41 AM -20.2740 -48.7900 153° Southeast 475 547 35,000  Level FlightAware ADS-B
Sat 07:55:25 AM -20.3580 -48.7430 152° Southeast 476 548 35,000  Level FlightAware ADS-B
Sat 07:56:05 AM -20.4380 -48.7010 154° Southeast 476 548 35,000  Level FlightAware ADS-B
Sat 07:56:48 AM -20.5220 -48.6570 154° Southeast 475 547 35,000  Level FlightAware ADS-B
Sat 07:57:29 AM -20.6050 -48.6130 154° Southeast 475 547 35,000  Level FlightAware ADS-B
Sat 07:58:13 AM -20.6920 -48.5660 153° Southeast 475 547 35,000  Level FlightAware ADS-B
Sat 07:58:55 AM -20.7750 -48.5220 154° Southeast 476 548 35,000  Level FlightAware ADS-B
Sat 07:59:35 AM -20.8530 -48.4800 153° Southeast 474 545 35,000  Level FlightAware ADS-B
Sat 08:00:15 AM -20.9300 -48.4380 153° Southeast 474 545 35,000  Level FlightAware ADS-B
Sat 08:00:55 AM -21.0080 -48.3970 154° Southeast 475 547 35,000 -270 Level FlightAware ADS-B
Sat 08:01:44 AM -21.1040 -48.3390 151° Southeast 482 555 34,600 -539 Descending FlightAware ADS-B
Sat 08:02:24 AM -21.1700 -48.2720 137° Southeast 481 554 34,200 -361 Descending FlightAware ADS-B
Sat 08:03:07 AM -21.2340 -48.2000 134° Southeast 478 550 34,100 -143 Descending FlightAware ADS-B
Sat 08:03:48 AM -21.2980 -48.1270 133° Southeast 480 552 34,000 -74 Descending FlightAware ADS-B
Sat 08:04:28 AM -21.3580 -48.0590 133° Southeast 481 554 34,000  Level FlightAware ADS-B
Sat 08:05:12 AM -21.4260 -47.9820 133° Southeast 481 554 34,000  Level FlightAware ADS-B
Sat 08:05:56 AM -21.4940 -47.9060 134° Southeast 481 554 34,000  Level FlightAware ADS-B
Sat 08:06:36 AM -21.5550 -47.8370 134° Southeast 482 555 34,000  Level FlightAware ADS-B
Sat 08:07:16 AM -21.6160 -47.7660 133° Southeast 483 556 34,000  Level FlightAware ADS-B
Sat 08:07:58 AM -21.6810 -47.6930 134° Southeast 483 556 34,000 -279 Level FlightAware ADS-B
Sat 08:08:42 AM -21.7490 -47.6160 134° Southeast 479 551 33,600 -732 Descending FlightAware ADS-B
Sat 08:09:20 AM -21.8040 -47.5520 133° Southeast 460 529 33,000 -776 Descending FlightAware ADS-B
Sat 08:10:07 AM -21.8620 -47.4860 133° Southeast 432 497 32,500 -1,395 Descending FlightAware ADS-B
Sat 08:10:46 AM -21.9220 -47.4160 133° Southeast 415 478 31,000 -2,138 Descending FlightAware ADS-B
Sat 08:11:34 AM -21.9740 -47.3590 135° Southeast 405 466 29,400 -1,915 Descending FlightAware ADS-B
Sat 08:12:20 AM -22.0630 -47.3120 154° Southeast 382 440 28,000 -1,674 Descending FlightAware ADS-B
Sat 08:13:00 AM -22.1290 -47.2850 159° South 383 441 27,000 -1,500 Descending FlightAware ADS-B
Sat 08:13:40 AM -22.1960 -47.2580 160° South 377 434 26,000 -1,482 Descending FlightAware ADS-B
Sat 08:14:25 AM -22.2680 -47.2280 159° South 363 418 24,900 -1,465 Descending FlightAware ADS-B
Sat 08:15:06 AM -22.3300 -47.2020 159° South 365 420 23,900 -1,482 Descending FlightAware ADS-B
Sat 08:15:50 AM -22.4020 -47.1720 159° South 360 414 22,800 -1,482 Descending FlightAware ADS-B
Sat 08:16:31 AM -22.4650 -47.1450 158° South 347 399 21,800 -1,481 Descending FlightAware ADS-B
Sat 08:17:11 AM -22.5250 -47.1200 159° South 350 403 20,800 -1,443 Descending FlightAware ADS-B
Sat 08:17:50 AM -22.5850 -47.0940 158° South 347 399 19,900 -1,500 Descending FlightAware ADS-B
Sat 08:18:35 AM -22.6530 -47.0660 159° South 344 396 18,700 -1,533 Descending FlightAware ADS-B
Sat 08:19:20 AM -22.7190 -47.0380 159° South 332 382 17,600 -1,364 Descending FlightAware ADS-B
Sat 08:20:03 AM -22.7740 -47.0150 159° South 336 387 16,700 -1,446 Descending FlightAware ADS-B
Sat 08:20:43 AM -22.8400 -46.9870 159° South 331 381 15,600 -1,429 Descending FlightAware ADS-B
Sat 08:21:27 AM -22.9030 -46.9610 159° South 311 358 14,700 -1,286 Descending FlightAware ADS-B
Sat 08:22:07 AM -22.9530 -46.9400 159° South 273 314 13,800 -1,429 Descending FlightAware ADS-B
Sat 08:22:51 AM -23.0020 -46.9190 158° South 257 296 12,700 -1,286 Descending FlightAware ADS-B
Sat 08:23:31 AM -23.0480 -46.9000 159° South 259 298 12,000 -1,059 Descending FlightAware ADS-B
Sat 08:24:16 AM -23.0950 -46.8800 159° South 253 291 11,200 -1,047 Descending FlightAware ADS-B
Sat 08:24:57 AM -23.1410 -46.8610 159° South 248 285 10,500 -963 Descending FlightAware ADS-B
Sat 08:25:37 AM -23.1850 -46.8420 158° South 245 282 9,900 -882 Descending FlightAware ADS-B
Sat 08:26:05 AM -23.2140 -46.8300 159° South 244 281 9,500 -818 Descending FlightAware ADS-B
Sat 08:26:21 AM -23.2300 -46.8230 158° South 243 280 9,300 -1,091 Descending FlightAware ADS-B
Sat 08:26:49 AM -23.2590 -46.8110 159° South 228 262 8,700 -1,320 Descending FlightAware ADS-B
Sat 08:27:11 AM -23.2800 -46.8020 159° South 220 253 8,200 -1,444 Descending FlightAware ADS-B
Sat 08:27:43 AM -23.3100 -46.7890 158° South 214 246 7,400 -1,452 Descending FlightAware ADS-B
Sat 08:28:13 AM -23.3380 -46.7770 159° South 217 250 6,700 -1,345 Descending FlightAware ADS-B
Sat 08:28:41 AM -23.3640 -46.7660 159° South 216 249 6,100 -1,071 Descending FlightAware ADS-B
Sat 08:29:09 AM -23.3860 -46.7500 146° Southeast 210 242 5,700 -536 Descending FlightAware ADS-B
Sat 08:29:37 AM -23.4010 -46.7360 139° Southeast 214 246 5,600 -474 Descending FlightAware ADS-B
Sat 08:29:47 AM -23.4150 -46.7230 140° Southeast 209 241 5,400 -900 Descending FlightAware ADS-B
Sat 08:30:17 AM -23.4360 -46.7030 139° Southeast 192 221 5,000 -621 Descending FlightAware ADS-B
Sat 08:30:45 AM -23.4520 -46.6830 131° Southeast 187 215 4,800 -632 Descending FlightAware ADS-B
Sat 08:31:14 AM -23.4620 -46.6590 114° Southeast 182 209 4,400 -517 Descending FlightAware ADS-B
Sat 08:31:43 AM -23.4730 -46.6340 116° Southeast 185 213 4,300 -146 Descending FlightAware ADS-B
Sat 08:31:55 AM -23.4740 -46.6240 96° East 184 212 4,300 -279 Level FlightAware ADS-B
Sat 08:32:26 AM -23.4680 -46.5960 77° East 185 213 4,100 -667 Descending FlightAware ADS-B
Sat 08:32:49 AM -23.4630 -46.5750 75° East 179 206 3,700 -906 Descending FlightAware ADS-B
Sat 08:33:19 AM -23.4560 -46.5520 72° East 152 175 3,300 -857 Descending FlightAware ADS-B
Sat 08:33:45 AM -23.4510 -46.5320 75° East 150 173 2,900 -750 Descending FlightAware ADS-B
Sat 08:34:15 AM -23.4450 -46.5110 73° East 148 170 2,600 -652 Descending FlightAware ADS-B
Sat 08:34:31 AM -23.4420 -46.5000 73° East 146 168 2,400 -837 Descending FlightAware ADS-B
Sat 08:34:58 AM -23.4370 -46.4810 74° East 144 166 2,000 -889 Descending FlightAware ADS-B
Sat 08:35:24 AM -23.4340 -46.4690 75° East 94 108 -4,615 Descending FlightAware ADS-B
Sat 08:35:52 AM -23.4310 -46.4580 73° East 94 108  Level FlightAware ADS-B
Sat 08:36:48 AM -23.4280 -46.4620 309° West 12 14  Level FlightAware ADS-B

Login

Don't have an account? Register now (free) for customized features, flight alerts, and more!